Aurora, CO (80042)

2:34 AM MDT on July 24, 2016 (GMT -0600)
Norfolk Glen | | Change Station

Elev 5456 ft 39.75 °N, 104.80 °W | Updated 4 seconds ago

Scattered Clouds
Scattered Clouds
70.9 °F
Feels Like 77 °F
N
4.0
Wind Variable Wind from South
Gusts 7.0 mph

Today
High -- | Low -- °F
--% Chance of Precip.
Yesterday
High -- | Low -- °F
Precip. -- in
Pressure 29.93 in
Visibility 10.0 miles
Clouds Few 18000 ft
Scattered Clouds 23000 ft
Heat Index 77 °F
Dew Point 50 °F
Humidity 47%
Rainfall 0.00 in
Snow Depth Not available.
5:51 AM 8:19 PM
Waning Gibbous, 78% visible
METAR KBKF 240758Z 19006KT 10SM FEW180 SCT230 20/11 A3019 RMK AO2A SLP134 T02020108
Pressure 29.93 in
Visibility 10.0 miles
Clouds Few 18000 ft
Scattered Clouds 23000 ft
Heat Index 77 °F
Dew Point 50 °F
Humidity 47%
Rainfall 0.00 in
Snow Depth Not available.
5:51 AM 8:19 PM
Waning Gibbous, 78% visible
METAR KBKF 240758Z 19006KT 10SM FEW180 SCT230 20/11 A3019 RMK AO2A SLP134 T02020108

10-Day Weather Forecast

Almanac

Astronomy

Jul. 24, 2016 Rise Set
Actual Time
Civil Twilight
Nautical Twilight
Astronomical Twilight
Moon
Length of Visible Light
Length of Day
Tomorrow will be .
, % of the Moon is Illuminated

Today's Extremes

State Highs State Lows

Community

WunderPhotos

Upload Photos

1,927,041 photos uploaded!

WunderBlog® & News

Nearby

Air Quality

  Air Quality AQ Index Pollutant
Not available.

Snow Depth

Station Depth Elevation

Earthquake Activity

City Distance Mag. Time & Date
Minimum magnitude displayed is 2.5.

Coastal Water Temperatures

Place Temperature

Stations

Nearby Weather Stations

Station Location Temp. Windchill Dew Point Humidity Wind Precip. Elev Updated Type
                   

Watches & Warnings

There are currently no watches in effect.